Time;durP1;ratioP1;P1;durP2;ratioP2;P2;SDS_P1;SDS_P2;PMS_P1;PMS_P2;Temp;Humidity;BMP_temperature;BMP_pressure;BME280_temperature;BME280_humidity;BME280_pressure;Samples;Min_cycle;Max_cycle;Signal;HPM_P1;HPM_P2
2021/04/03 00:00:29;;;;;;;9.50;4.90;;;13.10;85.90;;;13.79;46.98;102015.00;4888947;28;100388;-52
2021/04/03 00:02:56;;;;;;;14.67;6.50;;;13.20;88.50;;;13.79;44.48;102015.00;4893121;28;97979;-49
2021/04/03 00:05:23;;;;;;;16.67;6.47;;;13.20;85.80;;;13.84;46.02;102023.69;4890473;28;99575;-56
2021/04/03 00:07:50;;;;;;;13.43;5.83;;;13.30;86.30;;;13.83;43.94;102021.09;4876144;28;99494;-54
2021/04/03 00:10:48;;;;;;;13.43;7.03;;;13.30;84.60;;;13.70;45.42;102016.13;4895081;28;101021;-54
2021/04/03 00:13:16;;;;;;;10.10;4.33;;;13.10;85.10;;;13.96;46.83;102011.88;4871778;28;105724;-55
2021/04/03 00:15:43;;;;;;;7.10;3.70;;;13.30;89.40;;;14.13;45.64;102008.75;4890911;28;97625;-53
2021/04/03 00:18:12;;;;;;;11.73;5.70;;;13.50;85.70;;;14.24;45.25;102011.97;4894738;28;98309;-55
2021/04/03 00:20:38;;;;;;;9.80;4.13;;;13.50;86.00;;;14.39;46.21;102011.50;4873240;28;98731;-52
2021/04/03 00:23:04;;;;;;;4.77;2.20;;;13.70;87.40;;;14.59;45.86;102008.25;4876356;28;99036;-56
2021/04/03 00:25:34;;;;;;;4.20;2.27;;;14.00;86.80;;;14.22;42.32;102011.13;4871246;28;98223;-55
2021/04/03 00:28:00;;;;;;;8.30;3.13;;;13.60;83.60;;;14.33;45.17;102010.84;4894829;28;97242;-56
2021/04/03 00:30:26;;;;;;;10.67;4.40;;;13.70;84.80;;;14.41;43.98;102004.34;4871165;28;99499;-53
2021/04/03 00:32:57;;;;;;;12.27;4.20;;;13.90;82.40;;;14.38;44.73;102012.41;4887372;28;99011;-53
2021/04/03 00:35:31;;;;;;;10.90;3.80;;;13.70;82.00;;;14.38;43.80;102004.44;4881430;28;98655;-48
2021/04/03 00:37:59;;;;;;;6.83;2.53;;;13.60;80.60;;;14.51;45.57;102011.16;4877324;28;98376;-53
2021/04/03 00:40:38;;;;;;;8.33;3.00;;;13.70;86.40;;;14.52;45.18;102012.91;4888934;28;98975;-56
2021/04/03 00:43:09;;;;;;;13.47;4.47;;;13.90;85.10;;;14.84;44.41;102008.38;4892945;28;98310;-51
2021/04/03 00:45:36;;;;;;;12.00;4.37;;;14.30;84.60;;;14.64;44.79;102010.78;4889685;28;97451;-53
2021/04/03 00:48:03;;;;;;;12.70;4.43;;;14.10;82.80;;;14.44;40.31;101998.13;4891590;28;99196;-52
2021/04/03 00:50:35;;;;;;;9.67;3.77;;;13.90;79.90;;;14.63;42.63;101993.13;4888169;28;101411;-54
2021/04/03 00:53:02;;;;;;;14.17;4.40;;;14.00;81.40;;;14.65;43.97;102005.44;4891296;28;98058;-53
2021/04/03 00:55:28;;;;;;;10.70;3.47;;;14.00;80.50;;;14.81;43.41;102011.13;4852799;28;98561;-53
2021/04/03 00:57:54;;;;;;;5.40;2.50;;;14.20;80.20;;;14.81;44.34;102008.47;4860153;28;98114;-53
2021/04/03 01:00:20;;;;;;;5.10;2.30;;;14.20;83.40;;;14.92;44.16;102003.69;4875509;28;99665;-48
2021/04/03 01:02:46;;;;;;;6.23;2.13;;;14.30;83.50;;;15.00;44.08;102001.63;4898121;28;98964;-53
2021/04/03 01:05:20;;;;;;;11.90;4.10;;;14.50;84.20;;;15.11;43.89;102007.47;4878416;28;97617;-48
2021/04/03 01:07:46;;;;;;;5.10;2.13;;;14.60;79.50;;;15.25;43.94;101998.16;4886740;28;97335;-53
2021/04/03 01:10:17;;;;;;;13.73;5.00;;;14.60;84.40;;;15.27;39.07;102002.50;4892521;28;98459;-54
2021/04/03 01:13:32;;;;;;;14.17;4.90;;;14.80;77.30;;;15.24;43.82;102001.75;4872922;28;97336;-55
2021/04/03 01:16:01;;;;;;;10.73;4.57;;;14.60;78.60;;;14.97;43.14;101992.91;4888806;28;97470;-54
2021/04/03 01:19:00;;;;;;;17.43;5.40;;;14.30;81.20;;;14.96;43.05;101997.34;4882132;28;98797;-54
2021/04/03 01:21:41;;;;;;;6.00;2.40;;;14.10;78.30;;;14.85;41.94;101989.72;4888115;28;99559;-53
2021/04/03 01:24:41;;;;;;;10.00;4.33;;;14.00;82.10;;;14.84;41.54;101995.09;4893665;28;97919;-53
2021/04/03 01:27:16;;;;;;;14.07;5.40;;;14.00;80.00;;;14.75;43.56;101990.06;4904924;28;97257;-49
2021/04/03 01:30:01;;;;;;;16.03;6.27;;;13.70;79.80;;;14.27;41.48;101991.50;4906777;28;97266;-53
2021/04/03 01:32:54;;;;;;;15.83;6.47;;;13.40;80.10;;;14.42;45.08;101992.81;4913458;28;97060;-51
2021/04/03 01:35:32;;;;;;;16.17;6.63;;;13.40;82.30;;;14.29;41.46;101999.41;4909903;28;98553;-53
2021/04/03 01:38:06;;;;;;;14.57;6.00;;;13.50;83.70;;;14.28;45.12;101993.22;4900295;28;98342;-54
2021/04/03 01:40:34;;;;;;;20.77;7.10;;;13.40;83.40;;;14.26;44.55;101994.19;4906750;28;97270;-54
2021/04/03 01:43:07;;;;;;;16.50;5.90;;;13.50;84.90;;;14.41;42.45;102001.69;4919352;28;98558;-51
2021/04/03 01:45:34;;;;;;;6.67;3.20;;;13.60;81.80;;;14.38;44.99;101999.16;4910444;28;97278;-54
2021/04/03 01:48:01;;;;;;;16.43;6.23;;;13.60;85.10;;;14.36;44.00;102000.97;4900966;28;97046;-53
2021/04/03 01:50:28;;;;;;;8.17;3.40;;;13.60;82.80;;;14.51;44.86;102005.84;4915312;28;97157;-52
2021/04/03 01:52:54;;;;;;;18.03;6.80;;;13.70;85.00;;;14.34;40.54;102002.81;4917013;28;98739;-52
2021/04/03 01:55:21;;;;;;;10.83;3.70;;;13.70;80.10;;;14.26;45.71;101999.50;4899641;28;98587;-50
2021/04/03 01:57:50;;;;;;;9.43;4.70;;;13.40;87.00;;;14.04;44.21;102011.69;4901529;28;99173;-53
2021/04/03 02:00:24;;;;;;;4.13;2.00;;;13.30;83.40;;;14.33;45.78;102011.69;4905783;28;97420;-48
2021/04/03 02:02:51;;;;;;;8.63;3.87;;;13.60;88.30;;;14.64;45.15;102016.09;4897567;28;103316;-56
2021/04/03 02:05:18;;;;;;;8.43;3.57;;;14.10;82.90;;;14.70;44.92;102005.28;4900697;28;97151;-54
2021/04/03 02:07:47;;;;;;;7.00;2.77;;;14.10;85.30;;;14.61;44.79;102010.88;4914509;28;97603;-50
2021/04/03 02:10:17;;;;;;;7.20;3.40;;;14.10;84.80;;;14.47;42.13;102009.53;4899630;28;97516;-53
2021/04/03 02:12:46;;;;;;;11.10;3.90;;;13.90;82.90;;;14.43;43.86;102013.13;4897123;28;97713;-54
2021/04/03 02:15:13;;;;;;;11.37;4.00;;;13.80;83.30;;;14.18;42.37;102012.16;4914185;28;98470;-53
2021/04/03 02:17:43;;;;;;;4.87;2.23;;;13.60;82.60;;;14.03;42.42;102012.56;4918295;28;97685;-51
2021/04/03 02:20:10;;;;;;;6.63;2.53;;;13.30;85.20;;;14.08;45.40;102008.00;4915712;28;96987;-51
2021/04/03 02:22:37;;;;;;;7.70;2.73;;;13.30;85.00;;;13.95;45.41;102016.31;4918023;28;97268;-50
2021/04/03 02:25:11;;;;;;;9.27;2.40;;;13.20;85.00;;;13.99;44.15;102012.66;4896278;28;100021;-51
2021/04/03 02:27:39;;;;;;;8.67;2.70;;;13.30;84.00;;;13.88;45.17;102009.44;4913932;28;96980;-54
2021/04/03 02:30:18;;;;;;;5.97;2.33;;;13.20;85.00;;;13.66;44.22;102018.91;4899279;28;97231;-53
2021/04/03 02:32:51;;;;;;;7.13;2.60;;;12.90;83.40;;;13.95;46.11;102016.31;4898317;28;105219;-55
2021/04/03 02:35:20;;;;;;;5.90;2.07;;;13.20;87.00;;;14.04;46.19;102014.34;4901737;28;96860;-53
2021/04/03 02:37:48;;;;;;;5.70;2.37;;;13.30;87.30;;;14.19;46.04;102021.84;4896794;28;96999;-50
2021/04/03 02:40:19;;;;;;;8.50;2.40;;;13.50;88.80;;;14.26;45.58;102021.59;4902404;28;98421;-53
2021/04/03 02:43:08;;;;;;;5.63;1.83;;;13.60;85.90;;;14.40;41.72;102023.84;4910839;28;101371;-52
2021/04/03 02:45:46;;;;;;;11.07;3.17;;;13.80;87.70;;;14.53;44.10;102025.25;4898502;28;97133;-51
2021/04/03 02:48:17;;;;;;;8.93;2.87;;;13.90;81.60;;;14.54;42.54;102029.66;4915837;28;97160;-51
2021/04/03 02:50:46;;;;;;;6.47;2.53;;;14.00;79.90;;;14.84;44.85;102030.50;4914536;28;97549;-48
2021/04/03 02:53:15;;;;;;;14.87;3.47;;;14.30;83.00;;;14.72;39.84;102035.31;4915596;28;97754;-54
2021/04/03 02:55:47;;;;;;;8.00;2.43;;;14.20;78.10;;;15.01;44.21;102037.03;4901229;28;97455;-51
2021/04/03 02:58:19;;;;;;;6.77;2.17;;;14.40;86.50;;;15.01;44.35;102037.91;4885540;28;97140;-54
2021/04/03 03:00:47;;;;;;;5.40;2.07;;;14.30;81.40;;;14.82;41.74;102039.44;4901717;28;97399;-52
2021/04/03 03:03:14;;;;;;;11.50;2.93;;;14.10;83.00;;;14.77;45.02;102033.41;4917783;28;97736;-53
2021/04/03 03:05:44;;;;;;;11.83;3.13;;;14.00;85.40;;;14.77;44.52;102038.72;4917758;28;100535;-53
2021/04/03 03:08:12;;;;;;;6.17;2.30;;;13.90;83.40;;;14.79;44.43;102042.19;4884729;28;100697;-54
2021/04/03 03:10:38;;;;;;;9.77;3.20;;;13.90;85.20;;;14.85;44.40;102032.22;4900250;28;98359;-52
2021/04/03 03:13:08;;;;;;;12.63;3.63;;;14.10;84.30;;;14.58;40.45;102033.94;4917434;28;99975;-51
2021/04/03 03:15:34;;;;;;;16.13;3.83;;;14.00;78.50;;;14.37;39.63;102044.31;4894663;28;98150;-52
2021/04/03 03:18:02;;;;;;;6.17;2.37;;;13.80;79.00;;;14.52;45.21;102031.50;4902681;28;97198;-53
2021/04/03 03:20:30;;;;;;;7.80;2.83;;;13.60;84.60;;;14.52;45.23;102033.28;4896062;28;97055;-53
2021/04/03 03:22:59;;;;;;;6.63;2.83;;;13.60;85.10;;;14.57;44.25;102018.06;4902259;28;100196;-54
2021/04/03 03:25:25;;;;;;;5.93;2.50;;;13.70;84.20;;;14.46;44.81;102018.38;4881043;28;97083;-52
2021/04/03 03:27:53;;;;;;;12.97;3.50;;;13.60;85.00;;;14.54;44.71;102023.47;4902638;28;97085;-50
2021/04/03 03:30:22;;;;;;;14.27;4.07;;;13.80;85.70;;;14.57;42.88;102023.38;4900005;28;97047;-57
2021/04/03 03:32:48;;;;;;;15.00;4.00;;;14.00;80.80;;;14.62;44.80;102025.91;4912771;28;100688;-50
2021/04/03 03:35:16;;;;;;;12.53;3.97;;;13.90;82.60;;;14.68;44.68;102028.38;4885462;28;97240;-48
2021/04/03 03:37:44;;;;;;;13.13;3.80;;;14.00;84.10;;;14.69;43.66;102038.06;4913576;28;97047;-53
2021/04/03 03:40:12;;;;;;;11.70;3.60;;;13.90;80.80;;;14.47;41.40;102035.22;4903109;28;96980;-55
2021/04/03 03:42:40;;;;;;;12.17;3.80;;;13.70;79.70;;;14.53;44.39;102046.50;4889302;28;102399;-56
2021/04/03 03:45:09;;;;;;;11.30;4.10;;;13.60;84.50;;;14.44;43.56;102044.13;4901990;28;97292;-55
2021/04/03 03:47:35;;;;;;;10.27;3.07;;;13.60;80.80;;;14.45;45.05;102040.53;4915762;28;97833;-50
2021/04/03 03:50:01;;;;;;;7.13;2.17;;;13.50;86.10;;;14.41;45.29;102052.13;4915161;28;97053;-52
2021/04/03 03:52:27;;;;;;;5.47;2.43;;;13.40;86.60;;;14.47;43.60;102045.84;4914254;28;96836;-52
2021/04/03 03:54:52;;;;;;;12.87;4.20;;;13.70;85.10;;;14.35;42.96;102047.03;4920836;28;97410;-52
2021/04/03 03:57:18;;;;;;;8.77;2.77;;;13.50;81.80;;;14.44;44.48;102052.06;4902216;28;97400;-54
2021/04/03 03:59:44;;;;;;;8.67;2.67;;;13.60;84.80;;;14.37;45.13;102055.81;4897051;28;100610;-54
2021/04/03 04:02:10;;;;;;;8.27;2.97;;;13.60;85.40;;;14.64;45.11;102058.59;4901642;28;99613;-52
2021/04/03 04:04:35;;;;;;;11.50;3.70;;;13.90;81.70;;;14.71;40.99;102049.50;4913619;28;97263;-51
2021/04/03 04:07:01;;;;;;;7.67;2.57;;;14.10;80.90;;;14.82;44.88;102052.72;4920830;28;97759;-51
2021/04/03 04:09:28;;;;;;;11.70;3.30;;;14.10;84.10;;;14.82;44.58;102052.72;4896086;28;97063;-51
2021/04/03 04:11:54;;;;;;;12.27;4.00;;;14.10;83.50;;;14.82;44.15;102047.41;4896200;28;96870;-52
2021/04/03 04:14:20;;;;;;;17.73;4.50;;;14.00;81.20;;;14.83;40.76;102049.13;4895444;28;105077;-55
2021/04/03 04:16:45;;;;;;;11.60;4.20;;;14.10;79.80;;;14.94;43.56;102055.00;4916888;28;97339;-53
2021/04/03 04:19:11;;;;;;;15.73;4.63;;;14.20;81.50;;;14.75;40.60;102053.81;4920681;28;100209;-53
2021/04/03 04:21:37;;;;;;;17.93;4.20;;;14.00;79.90;;;14.76;43.76;102052.91;4910805;28;98157;-52
2021/04/03 04:24:03;;;;;;;16.40;4.23;;;14.00;83.40;;;14.65;44.87;102055.03;4898875;28;100416;-52
2021/04/03 04:26:29;;;;;;;14.33;3.97;;;13.70;82.10;;;14.46;44.86;102060.84;4891089;28;97094;-53
2021/04/03 04:28:55;;;;;;;5.50;2.37;;;13.50;81.40;;;14.62;45.05;102065.75;4915905;28;97262;-53
2021/04/03 04:31:21;;;;;;;7.33;2.33;;;13.60;87.90;;;14.56;45.28;102059.69;4908239;28;97574;-53
2021/04/03 04:33:47;;;;;;;11.60;3.90;;;13.70;84.60;;;14.63;44.77;102067.47;4901614;28;99442;-52
2021/04/03 04:36:13;;;;;;;15.77;4.90;;;13.70;83.50;;;14.63;44.09;102067.47;4910008;28;98913;-52
2021/04/03 04:38:39;;;;;;;4.43;1.97;;;13.70;82.60;;;14.65;44.90;102066.50;4893753;28;99175;-54
2021/04/03 04:41:04;;;;;;;4.70;2.10;;;13.80;85.80;;;14.81;44.96;102077.53;4919073;28;110909;-55
2021/04/03 04:43:30;;;;;;;6.70;2.50;;;14.00;85.30;;;14.92;44.38;102080.75;4908305;28;98025;-55
2021/04/03 04:45:56;;;;;;;8.43;2.60;;;14.20;82.20;;;14.94;44.46;102084.22;4916318;28;98693;-49
2021/04/03 04:48:22;;;;;;;8.97;2.53;;;14.10;83.10;;;14.99;44.00;102087.59;4895455;28;98009;-51
2021/04/03 04:50:48;;;;;;;9.97;3.90;;;14.20;83.80;;;14.73;42.44;102100.78;4919739;28;100358;-49
2021/04/03 04:53:13;;;;;;;11.77;3.50;;;14.10;78.10;;;15.01;44.61;102100.81;4895894;28;99594;-53
2021/04/03 04:55:39;;;;;;;16.00;3.87;;;14.30;85.00;;;15.02;40.01;102103.44;4915014;28;98447;-54
2021/04/03 04:58:05;;;;;;;4.23;1.70;;;14.40;78.90;;;15.00;44.23;102110.56;4900933;28;97328;-54
2021/04/03 05:00:31;;;;;;;4.43;1.67;;;14.20;84.30;;;14.95;43.99;102123.16;4895342;28;111313;-52
2021/04/03 05:02:56;;;;;;;14.77;4.00;;;14.20;83.70;;;15.09;43.06;102105.00;4898243;28;99557;-56
2021/04/03 05:05:22;;;;;;;8.63;2.97;;;14.40;78.70;;;14.98;39.88;102117.72;4894382;28;96948;-53
2021/04/03 05:07:48;;;;;;;12.53;3.90;;;14.30;78.70;;;14.94;41.95;102115.22;4922575;28;97462;-53
2021/04/03 05:10:14;;;;;;;5.77;2.33;;;14.10;78.50;;;14.66;44.43;102120.50;4908483;28;97371;-56
2021/04/03 05:12:40;;;;;;;9.77;2.73;;;13.80;82.00;;;14.59;44.82;102115.34;4895512;28;97900;-51
2021/04/03 05:15:07;;;;;;;16.43;4.50;;;13.60;83.50;;;14.59;42.22;102118.00;4897637;28;97063;-54
2021/04/03 05:17:33;;;;;;;13.57;4.30;;;13.70;80.40;;;14.41;44.19;102131.78;4912494;28;98461;-52
2021/04/03 05:19:58;;;;;;;9.77;3.30;;;13.40;80.60;;;14.45;45.23;102122.84;4898808;28;104342;-56
2021/04/03 05:22:24;;;;;;;4.47;1.90;;;13.40;85.70;;;14.56;45.30;102123.41;4892692;28;114091;-52
2021/04/03 05:24:50;;;;;;;14.40;4.10;;;13.60;88.30;;;14.63;44.72;102131.22;4897489;28;97893;-53
2021/04/03 05:27:16;;;;;;;17.90;4.23;;;13.80;84.30;;;14.27;40.74;102121.56;4911545;28;102536;-48
2021/04/03 05:29:41;;;;;;;14.93;4.03;;;13.60;79.20;;;14.45;45.22;102127.28;4898354;28;99536;-49
2021/04/03 05:32:08;;;;;;;18.83;4.43;;;13.60;82.10;;;14.39;43.96;102128.31;4898840;28;115061;-56
2021/04/03 05:34:34;;;;;;;13.73;3.90;;;13.50;80.10;;;13.97;40.27;102131.22;4911387;28;97463;-55
2021/04/03 05:37:00;;;;;;;15.90;4.20;;;13.10;79.40;;;13.78;40.01;102129.97;4898626;28;98180;-52
2021/04/03 05:39:26;;;;;;;12.67;3.13;;;12.90;80.10;;;13.93;46.02;102126.91;4910341;28;98402;-52
2021/04/03 05:41:52;;;;;;;10.70;3.17;;;12.90;82.50;;;13.95;44.47;102138.34;4916442;28;107850;-54
2021/04/03 05:44:22;;;;;;;13.57;3.90;;;13.00;84.80;;;13.81;43.04;102132.53;4877686;28;96936;-50
2021/04/03 05:46:49;;;;;;;15.67;3.40;;;12.90;81.70;;;13.97;46.31;102138.31;4903364;28;97621;-52
2021/04/03 05:49:18;;;;;;;17.43;4.43;;;13.00;83.50;;;14.00;43.60;102130.25;4901367;28;98148;-56
2021/04/03 05:51:45;;;;;;;5.73;2.00;;;13.10;81.70;;;13.96;45.92;102145.41;4918981;28;102067;-53
2021/04/03 05:54:12;;;;;;;5.43;1.67;;;13.10;86.20;;;14.18;46.17;102140.41;4919945;28;97382;-54
2021/04/03 05:56:38;;;;;;;7.77;2.50;;;13.40;84.50;;;14.36;45.58;102148.78;4915986;28;97367;-50
2021/04/03 05:59:05;;;;;;;7.43;2.53;;;13.60;82.50;;;14.42;45.55;102149.44;4917643;28;102820;-52
2021/04/03 06:01:33;;;;;;;5.20;2.00;;;13.60;87.00;;;14.69;45.10;102154.94;4897684;28;100080;-48
2021/04/03 06:04:00;;;;;;;17.40;4.27;;;14.10;84.40;;;14.81;43.02;102149.25;4917024;28;96980;-53
2021/04/03 06:06:25;;;;;;;20.27;4.10;;;14.40;78.80;;;14.76;40.18;102160.03;4914650;28;97022;-52
2021/04/03 06:08:52;;;;;;;13.23;3.40;;;14.30;78.00;;;14.93;43.53;102156.88;4897620;28;100118;-53
2021/04/03 06:11:23;;;;;;;12.93;3.90;;;14.30;81.40;;;15.00;42.84;102173.47;4897103;28;97631;-53
2021/04/03 06:14:01;;;;;;;16.37;4.40;;;14.40;78.20;;;15.02;43.72;102167.19;4882892;28;97595;-52
2021/04/03 06:16:35;;;;;;;5.17;1.73;;;14.30;79.60;;;15.05;43.94;102177.75;4905184;28;96683;-51
2021/04/03 06:19:09;;;;;;;9.63;2.80;;;14.30;82.70;;;14.85;44.22;102174.81;4922543;28;99554;-55
2021/04/03 06:21:35;;;;;;;16.50;3.73;;;14.00;84.10;;;14.71;44.34;102177.00;4894999;28;97718;-50
2021/04/03 06:24:03;;;;;;;20.47;4.67;;;13.90;80.90;;;14.73;40.66;102188.44;4918831;28;99796;-53
2021/04/03 06:26:29;;;;;;;8.10;2.93;;;13.90;79.70;;;14.67;45.11;102191.28;4897985;28;97054;-54
2021/04/03 06:29:30;;;;;;;3.60;1.60;;;13.70;87.70;;;14.78;44.88;102194.53;4900869;28;97370;-52
2021/04/03 06:31:58;;;;;;;16.40;3.50;;;13.90;86.20;;;14.79;44.37;102199.78;4911422;28;99944;-54
2021/04/03 06:34:37;;;;;;;4.03;1.60;;;14.10;82.20;;;14.99;44.55;102198.31;4879303;28;97481;-53
2021/04/03 06:37:06;;;;;;;11.67;4.13;;;14.20;86.40;;;14.92;42.87;102202.97;4896296;28;97467;-51
2021/04/03 06:39:56;;;;;;;14.20;3.90;;;14.20;80.00;;;14.97;44.32;102201.03;4878290;28;98902;-55
2021/04/03 06:42:45;;;;;;;4.77;1.80;;;14.10;85.30;;;15.08;43.91;102206.91;4917500;28;99851;-50
2021/04/03 06:45:18;;;;;;;5.73;1.90;;;14.40;83.60;;;15.10;44.17;102207.72;4919175;28;97609;-55
2021/04/03 06:47:50;;;;;;;11.03;4.10;;;14.30;81.30;;;15.04;43.26;102215.00;4915008;28;97950;-54
2021/04/03 06:50:18;;;;;;;6.23;2.20;;;14.10;79.80;;;15.04;44.39;102221.16;4899473;28;98597;-55
2021/04/03 06:52:45;;;;;;;7.23;2.97;;;14.10;83.90;;;14.98;44.51;102223.16;4901145;28;99182;-56
2021/04/03 06:55:14;;;;;;;14.67;4.50;;;14.00;84.80;;;14.78;42.62;102226.41;4900768;28;98866;-51
2021/04/03 06:57:45;;;;;;;17.27;4.90;;;13.90;80.60;;;14.83;43.86;102224.47;4894247;28;96927;-55
2021/04/03 07:00:13;;;;;;;13.83;3.57;;;14.00;82.70;;;14.92;44.88;102221.56;4898069;28;98648;-51
2021/04/03 07:02:54;;;;;;;5.57;2.00;;;14.00;84.80;;;15.06;44.40;102232.66;4909055;28;97475;-52
2021/04/03 07:05:23;;;;;;;4.33;1.93;;;14.20;86.80;;;14.86;44.60;102233.22;4910262;28;97244;-56
2021/04/03 07:07:49;;;;;;;16.33;5.80;;;14.10;85.80;;;14.76;43.28;102234.41;4920970;28;97369;-53
2021/04/03 07:10:17;;;;;;;25.60;7.03;;;14.00;80.80;;;14.83;41.94;102224.47;4900031;28;97651;-53
2021/04/03 07:12:44;;;;;;;12.00;5.03;;;14.20;80.10;;;14.98;43.93;102231.13;4897725;28;97645;-53
2021/04/03 07:15:12;;;;;;;22.50;7.37;;;14.40;82.50;;;15.06;42.73;102222.03;4899311;28;97260;-52
2021/04/03 07:17:43;;;;;;;14.30;5.37;;;14.60;79.60;;;15.17;43.90;102227.88;4906720;28;96831;-52
2021/04/03 07:20:15;;;;;;;8.90;3.13;;;14.50;82.80;;;15.06;43.99;102235.31;4898013;28;97981;-54
2021/04/03 07:22:48;;;;;;;21.10;8.07;;;14.40;81.40;;;14.82;41.66;102236.88;4908395;28;98170;-55
2021/04/03 07:25:16;;;;;;;25.23;7.73;;;14.10;76.10;;;14.54;38.69;102239.44;4915637;28;97345;-52
2021/04/03 07:27:46;;;;;;;25.27;7.63;;;13.80;76.40;;;14.07;39.52;102242.44;4894074;28;97088;-54
2021/04/03 07:30:14;;;;;;;5.30;2.67;;;13.30;78.80;;;14.64;45.15;102236.53;4918599;28;97681;-52
2021/04/03 07:32:44;;;;;;;6.57;3.13;;;13.90;88.10;;;15.02;44.27;102240.75;4891127;28;99304;-50
2021/04/03 07:35:17;;;;;;;6.23;2.83;;;14.60;84.20;;;15.15;42.94;102245.66;4917964;28;99692;-50
2021/04/03 07:37:43;;;;;;;18.20;6.47;;;14.80;80.70;;;15.00;40.90;102247.88;4901139;28;97027;-56
2021/04/03 07:40:15;;;;;;;10.17;4.00;;;14.70;75.00;;;15.28;43.48;102248.81;4916605;28;97539;-55
2021/04/03 07:42:41;;;;;;;17.50;6.07;;;14.90;80.00;;;15.07;43.25;102247.69;4892455;28;100259;-54
2021/04/03 07:45:41;;;;;;;12.93;5.10;;;14.60;79.70;;;15.01;42.46;102254.94;4914242;28;97313;-53
2021/04/03 07:48:24;;;;;;;5.10;2.57;;;14.50;78.10;;;15.11;42.28;102252.00;4900067;28;97856;-55
2021/04/03 07:50:50;;;;;;;7.53;2.70;;;14.60;82.30;;;15.40;43.22;102256.44;4892749;28;103355;-56
2021/04/03 07:53:38;;;;;;;7.27;2.97;;;15.00;83.80;;;15.34;37.03;102261.06;4926443;28;98593;-54
2021/04/03 07:56:05;;;;;;;7.90;2.87;;;15.00;73.30;;;15.60;42.58;102253.19;4913145;28;97195;-53
2021/04/03 07:58:33;;;;;;;4.47;1.90;;;15.30;82.90;;;16.02;42.07;102260.69;4901575;28;97020;-53
2021/04/03 08:01:03;;;;;;;11.37;4.57;;;15.90;80.80;;;16.16;39.90;102260.25;4917151;28;98236;-55
2021/04/03 08:03:31;;;;;;;13.13;4.67;;;16.20;73.70;;;16.45;39.83;102264.56;4914654;28;97712;-51
2021/04/03 08:06:05;;;;;;;15.93;5.13;;;16.50;75.30;;;16.51;35.48;102269.72;4922059;28;97420;-52
2021/04/03 08:08:34;;;;;;;15.07;5.27;;;16.60;70.30;;;16.12;38.81;102270.13;4914469;28;97102;-53
2021/04/03 08:11:13;;;;;;;5.47;1.93;;;16.00;71.10;;;16.44;40.88;102270.81;4918111;28;96840;-51
2021/04/03 08:13:43;;;;;;;11.33;3.37;;;16.20;79.30;;;16.39;40.56;102272.78;4896547;28;98322;-51
2021/04/03 08:16:12;;;;;;;3.90;2.40;;;16.20;78.50;;;16.65;40.44;102270.09;4922819;28;96871;-52
2021/04/03 08:18:41;;;;;;;5.40;2.37;;;16.60;77.80;;;16.53;39.25;102278.50;4914096;28;97334;-53
2021/04/03 08:21:09;;;;;;;5.27;2.20;;;16.50;73.60;;;16.70;40.19;102281.47;4924949;28;97430;-51
2021/04/03 08:23:50;;;;;;;14.57;5.13;;;16.60;77.20;;;16.80;39.03;102271.38;4909246;28;99496;-52
2021/04/03 08:26:18;;;;;;;4.67;2.20;;;16.80;70.20;;;17.00;39.69;102275.97;4900805;28;97110;-53
2021/04/03 08:28:45;;;;;;;9.17;3.20;;;17.10;76.40;;;16.94;38.82;102271.75;4892203;28;98385;-50
2021/04/03 08:31:22;;;;;;;6.20;3.07;;;17.00;71.30;;;16.94;39.38;102283.28;4897568;28;99602;-52
2021/04/03 08:33:51;;;;;;;16.63;6.10;;;16.90;73.40;;;16.79;33.80;102286.50;4907969;28;101079;-55
2021/04/03 08:36:21;;;;;;;8.80;3.27;;;16.90;67.90;;;16.53;38.20;102283.84;4914937;28;97085;-54
2021/04/03 08:38:47;;;;;;;5.90;2.50;;;16.20;75.60;;;16.80;39.67;102293.56;4890946;28;99571;-53
2021/04/03 08:41:32;;;;;;;7.80;2.63;;;16.60;77.40;;;16.78;39.87;102295.41;4893853;28;98493;-50
2021/04/03 08:43:58;;;;;;;7.37;3.37;;;16.60;77.20;;;16.84;39.49;102299.66;4890557;28;102987;-55
2021/04/03 08:46:25;;;;;;;9.97;2.87;;;16.70;75.60;;;16.85;39.67;102299.59;4856705;28;97484;-55
2021/04/03 08:48:59;;;;;;;12.43;5.00;;;16.70;76.60;;;17.00;37.69;102297.28;4895607;28;96879;-52
2021/04/03 08:51:26;;;;;;;9.53;3.57;;;17.00;70.20;;;17.03;39.23;102291.84;4885876;28;99544;-52
2021/04/03 08:53:55;;;;;;;4.77;2.50;;;16.90;75.40;;;16.87;39.37;102302.19;4885047;28;98244;-55
2021/04/03 08:56:41;;;;;;;10.07;4.97;;;16.70;75.30;;;16.76;38.62;102304.34;4870554;28;97045;-57
2021/04/03 08:59:12;;;;;;;17.00;5.67;;;16.50;74.30;;;16.84;37.96;102303.19;4874071;28;98333;-53
2021/04/03 09:01:45;;;;;;;17.07;6.90;;;16.70;73.80;;;16.18;35.04;102291.22;4886005;28;100695;-52
2021/04/03 09:04:12;;;;;;;17.57;6.80;;;15.90;67.90;;;15.90;37.69;102296.56;4866689;28;99233;-53
2021/04/03 09:06:49;;;;;;;10.27;4.70;;;15.40;70.30;;;16.22;40.20;102303.53;4881446;28;98179;-52
2021/04/03 09:09:15;;;;;;;16.97;7.10;;;15.80;77.30;;;16.25;40.64;102298.09;4875331;28;103414;-53
2021/04/03 09:12:05;;;;;;;6.13;2.97;;;15.90;75.50;;;16.31;40.79;102291.69;4888561;28;99325;-53
2021/04/03 09:14:34;;;;;;;18.83;7.27;;;15.90;78.60;;;15.92;38.25;102293.88;4868541;28;99146;-54
2021/04/03 09:17:05;;;;;;;11.43;4.97;;;15.50;72.90;;;15.79;38.99;102298.72;4861458;28;99000;-54
2021/04/03 09:19:36;;;;;;;18.13;6.53;;;15.40;76.70;;;15.55;36.93;102300.31;4890553;28;98213;-51
2021/04/03 09:22:03;;;;;;;15.80;5.80;;;15.10;73.40;;;15.25;38.50;102295.91;4879061;28;99881;-54
2021/04/03 09:24:39;;;;;;;15.60;7.97;;;14.70;76.60;;;15.02;38.12;102300.06;4890030;28;97141;-51
2021/04/03 09:27:20;;;;;;;6.17;3.67;;;14.50;73.30;;;15.33;42.95;102299.19;4878161;28;97372;-55
2021/04/03 09:29:49;;;;;;;7.83;3.07;;;14.80;82.80;;;15.56;42.43;102307.38;4892031;28;98231;-53
2021/04/03 09:32:17;;;;;;;11.90;4.03;;;15.30;80.90;;;15.82;38.99;102303.06;4891238;28;97948;-54
2021/04/03 09:34:44;;;;;;;18.40;7.57;;;15.70;76.80;;;15.73;37.68;102304.22;4870821;28;97709;-55
2021/04/03 09:37:20;;;;;;;17.70;8.00;;;15.60;70.30;;;15.54;36.31;102293.25;4878252;28;98574;-55
2021/04/03 09:39:55;;;;;;;20.23;8.93;;;15.30;70.20;;;15.01;38.94;102298.34;4882177;28;97184;-54
2021/04/03 09:42:24;;;;;;;15.77;7.03;;;14.60;71.80;;;14.78;40.15;102300.78;4882172;28;99939;-58
2021/04/03 09:44:52;;;;;;;22.40;8.97;;;14.20;75.50;;;14.52;37.80;102294.38;4876146;28;103485;-55
2021/04/03 09:47:18;;;;;;;18.57;8.97;;;14.00;73.90;;;14.08;40.19;102294.59;4887295;28;97350;-56
2021/04/03 09:49:45;;;;;;;25.17;9.93;;;13.60;76.30;;;14.12;39.93;102290.94;4871297;28;99145;-53
2021/04/03 09:52:15;;;;;;;19.27;9.27;;;13.60;77.20;;;14.10;41.04;102290.97;4869605;28;99498;-55
2021/04/03 09:54:43;;;;;;;8.63;4.50;;;13.60;78.50;;;14.49;44.32;102291.81;4890625;28;96968;-54
2021/04/03 09:57:10;;;;;;;13.20;6.03;;;14.00;83.30;;;15.06;43.57;102291.13;4870256;28;97551;-50
2021/04/03 09:59:36;;;;;;;10.33;4.60;;;14.90;83.00;;;15.53;41.12;102288.84;4853964;28;98483;-56
2021/04/03 10:02:03;;;;;;;26.63;9.63;;;15.60;78.80;;;15.57;41.80;102287.81;4879197;28;97662;-56
2021/04/03 10:04:31;;;;;;;9.27;5.87;;;15.50;74.00;;;15.88;41.54;102286.91;4871454;28;97824;-52
2021/04/03 10:06:57;;;;;;;7.43;3.53;;;15.80;78.40;;;16.15;40.99;102286.00;4872801;28;98937;-53
2021/04/03 10:09:24;;;;;;;25.27;11.00;;;16.10;77.80;;;16.10;35.52;102282.63;4858937;28;99062;-55
2021/04/03 10:11:52;;;;;;;19.77;10.80;;;16.10;68.90;;;16.08;37.70;102279.16;4887461;28;98301;-55
2021/04/03 10:14:18;;;;;;;19.10;10.20;;;15.90;70.50;;;15.98;36.11;102272.38;4888786;28;99108;-54
2021/04/03 10:16:45;;;;;;;25.90;10.90;;;15.70;71.00;;;15.96;38.35;102279.53;4875286;28;98229;-52
2021/04/03 10:19:11;;;;;;;14.73;7.67;;;15.60;72.50;;;16.26;41.01;102278.53;4878406;28;99510;-52